createdAt,value
2022-11-29T00:00:03.257Z,100171.84
2022-11-29T00:02:45.497Z,100167.41
2022-11-29T00:05:15.140Z,100177.03
2022-11-29T00:07:44.820Z,100178.78
2022-11-29T00:10:14.751Z,100183.06
2022-11-29T00:12:44.380Z,100180.44
2022-11-29T00:15:14.325Z,100179.56
2022-11-29T00:17:46.480Z,100175.16
2022-11-29T00:20:16.382Z,100181.34
2022-11-29T00:22:45.943Z,100179.63
2022-11-29T00:25:15.483Z,100177.03
2022-11-29T00:27:45.020Z,100179.69
2022-11-29T00:30:15.731Z,100184.13
2022-11-29T00:32:48.193Z,100178.00
2022-11-29T00:35:17.975Z,100175.38
2022-11-29T00:37:47.535Z,100182.50
2022-11-29T00:40:17.167Z,100181.63
2022-11-29T00:42:46.723Z,100174.63
2022-11-29T00:45:16.280Z,100186.97
2022-11-29T00:47:48.444Z,100184.31
2022-11-29T00:50:18.069Z,100191.41
2022-11-29T00:52:47.685Z,100186.13
2022-11-29T00:55:17.766Z,100188.75
2022-11-29T00:57:47.374Z,100185.25
2022-11-29T01:00:18.372Z,100189.59
2022-11-29T01:02:50.766Z,100191.34
2022-11-29T01:05:20.585Z,100192.25
2022-11-29T01:07:50.245Z,100187.88
2022-11-29T01:10:19.906Z,100187.03
2022-11-29T01:12:49.456Z,100193.22
2022-11-29T01:15:19.203Z,100194.09
2022-11-29T01:17:51.524Z,100197.56
2022-11-29T01:20:21.133Z,100189.66
2022-11-29T01:22:51.040Z,100187.88
2022-11-29T01:25:21.367Z,100196.66
2022-11-29T01:27:50.935Z,100194.88
2022-11-29T01:30:20.667Z,100195.72
2022-11-29T01:32:52.815Z,100193.16
2022-11-29T01:35:22.356Z,100194.94
2022-11-29T01:37:51.901Z,100196.72
2022-11-29T01:40:21.551Z,100194.09
2022-11-29T01:42:51.256Z,100204.66
2022-11-29T01:45:27.423Z,100202.91
2022-11-29T01:48:00.659Z,100199.41
2022-11-29T01:50:30.249Z,100203.81
2022-11-29T01:53:00.619Z,100200.28
2022-11-29T01:55:30.487Z,100213.41
2022-11-29T01:58:01.391Z,100213.41
2022-11-29T02:00:30.964Z,100212.56
2022-11-29T02:03:07.053Z,100208.19
2022-11-29T02:05:36.672Z,100211.69
2022-11-29T02:08:07.031Z,100214.31
2022-11-29T02:10:46.310Z,100214.19
2022-11-29T02:13:24.838Z,100212.44
2022-11-29T02:15:59.235Z,100217.66
2022-11-29T02:18:45.706Z,100215.00
2022-11-29T02:21:33.679Z,100221.13
2022-11-29T02:24:17.077Z,100220.22
2022-11-29T02:27:01.839Z,100222.03
2022-11-29T02:29:40.573Z,100228.22
2022-11-29T02:32:36.902Z,100228.16
2022-11-29T02:35:18.361Z,100226.41
2022-11-29T02:38:09.274Z,100222.88
2022-11-29T02:40:52.384Z,100224.59
2022-11-29T02:43:39.567Z,100225.44
2022-11-29T02:46:24.646Z,100221.91
2022-11-29T02:49:03.638Z,100227.16
2022-11-29T02:51:41.305Z,100224.53
2022-11-29T02:54:17.041Z,100228.91
2022-11-29T02:56:49.492Z,100234.13
2022-11-29T02:59:27.792Z,100231.47
2022-11-29T03:02:06.242Z,100235.84
2022-11-29T03:04:44.198Z,100233.22
2022-11-29T03:07:18.236Z,100242.78
2022-11-29T03:09:50.519Z,100239.22
2022-11-29T03:12:23.715Z,100240.94
2022-11-29T03:14:59.195Z,100234.81
2022-11-29T03:17:34.959Z,100240.09
2022-11-29T03:20:15.744Z,100242.72
2022-11-29T03:22:50.564Z,100248.91
2022-11-29T03:25:25.586Z,100252.41
2022-11-29T03:27:59.619Z,100255.03
2022-11-29T03:30:29.217Z,100251.50
2022-11-29T03:33:05.535Z,100248.84
2022-11-29T03:35:42.709Z,100253.22
2022-11-29T03:38:18.017Z,100256.66
2022-11-29T03:40:52.858Z,100260.13
2022-11-29T03:43:26.505Z,100268.88
2022-11-29T03:46:00.516Z,100268.81
2022-11-29T03:48:34.254Z,100266.19
2022-11-29T03:51:10.311Z,100269.69
2022-11-29T03:53:44.859Z,100274.97
2022-11-29T03:56:28.868Z,100270.59
2022-11-29T03:59:06.219Z,100274.16
2022-11-29T04:02:20.110Z,100276.78
2022-11-29T04:05:12.078Z,100276.78
2022-11-29T04:07:57.038Z,100284.66
2022-11-29T04:10:43.329Z,100282.91
2022-11-29T04:13:34.271Z,100284.59
2022-11-29T04:16:36.307Z,100283.69
2022-11-29T04:19:18.603Z,100295.16
2022-11-29T04:22:11.841Z,100285.47
2022-11-29T04:25:12.109Z,100290.63
2022-11-29T04:28:04.035Z,100289.72
2022-11-29T04:30:38.023Z,100296.72
2022-11-29T04:33:33.050Z,100299.34
2022-11-29T04:36:29.601Z,100304.63
2022-11-29T04:39:16.688Z,100300.19
2022-11-29T04:42:18.879Z,100308.06
2022-11-29T04:44:59.832Z,100303.66
2022-11-29T04:47:44.990Z,100307.13
2022-11-29T04:50:33.667Z,100308.06
2022-11-29T04:53:30.871Z,100308.09
2022-11-29T04:56:08.444Z,100311.69
2022-11-29T04:58:44.239Z,100312.59
2022-11-29T05:01:20.594Z,100315.22
2022-11-29T05:03:57.054Z,100321.34
2022-11-29T05:06:32.417Z,100317.88
2022-11-29T05:09:09.659Z,100328.44
2022-11-29T05:11:47.522Z,100332.00
2022-11-29T05:14:30.083Z,100332.00
2022-11-29T05:17:07.015Z,100339.09
2022-11-29T05:19:49.640Z,100336.47
2022-11-29T05:22:34.784Z,100340.97
2022-11-29T05:25:18.979Z,100340.97
2022-11-29T05:27:50.881Z,100348.94
2022-11-29T05:30:25.519Z,100353.28
2022-11-29T05:33:00.260Z,100348.00
2022-11-29T05:35:42.988Z,100348.88
2022-11-29T05:38:26.753Z,100353.22
2022-11-29T05:41:06.050Z,100357.59
2022-11-29T05:43:48.421Z,100358.41
2022-11-29T05:46:24.993Z,100364.53
2022-11-29T05:49:01.789Z,100366.25
2022-11-29T05:51:40.763Z,100371.47
2022-11-29T05:54:17.421Z,100369.66
2022-11-29T05:56:52.200Z,100375.78
2022-11-29T05:59:23.966Z,100375.81
2022-11-29T06:02:00.817Z,100375.81
2022-11-29T06:04:36.748Z,100374.03
2022-11-29T06:07:11.625Z,100385.38
2022-11-29T06:09:44.260Z,100386.09
2022-11-29T06:12:21.023Z,100395.69
2022-11-29T06:15:31.024Z,100398.19
2022-11-29T06:18:17.262Z,100401.59
2022-11-29T06:20:55.631Z,100401.56
2022-11-29T06:23:57.863Z,100406.75
2022-11-29T06:26:47.592Z,100411.91
2022-11-29T06:29:26.560Z,100410.88
2022-11-29T06:32:00.092Z,100418.63
2022-11-29T06:34:36.529Z,100415.91
2022-11-29T06:37:08.568Z,100421.06
2022-11-29T06:39:38.875Z,100417.50
2022-11-29T06:42:08.531Z,100417.44
2022-11-29T06:44:38.706Z,100426.16
2022-11-29T06:47:10.431Z,100427.88
2022-11-29T06:49:49.264Z,100434.00
2022-11-29T06:52:27.466Z,100434.84
2022-11-29T06:55:13.186Z,100435.75
2022-11-29T06:57:51.704Z,100433.13
2022-11-29T07:00:25.678Z,100441.03
2022-11-29T07:03:28.936Z,100440.19
2022-11-29T07:06:01.676Z,100440.34
2022-11-29T07:08:31.912Z,100442.31
2022-11-29T07:11:02.653Z,100444.19
2022-11-29T07:13:32.907Z,100453.06
2022-11-29T07:16:07.962Z,100453.00
2022-11-29T07:18:45.534Z,100455.66
2022-11-29T07:21:24.348Z,100457.38
2022-11-29T07:23:58.759Z,100459.25
2022-11-29T07:26:34.581Z,100469.03
2022-11-29T07:29:14.131Z,100465.50
2022-11-29T07:31:51.387Z,100476.91
2022-11-29T07:34:26.312Z,100468.91
2022-11-29T07:37:06.493Z,100475.94
2022-11-29T07:39:44.893Z,100471.44
2022-11-29T07:42:19.147Z,100474.09
2022-11-29T07:44:57.788Z,100483.69
2022-11-29T07:47:31.263Z,100484.44
2022-11-29T07:50:03.976Z,100495.72
2022-11-29T07:52:36.630Z,100494.69
2022-11-29T07:55:06.737Z,100496.31
2022-11-29T07:57:36.998Z,100486.47
2022-11-29T08:00:07.925Z,100486.41
2022-11-29T08:02:41.478Z,100489.94
2022-11-29T08:05:12.318Z,100499.59
2022-11-29T08:07:44.601Z,100497.81
2022-11-29T08:10:16.303Z,100496.94
2022-11-29T08:12:46.820Z,100489.88
2022-11-29T08:15:16.824Z,100495.09
2022-11-29T08:17:46.474Z,100510.03
2022-11-29T08:20:17.445Z,100500.31
2022-11-29T08:22:56.866Z,100501.16
2022-11-29T08:25:26.557Z,100519.47
2022-11-29T08:27:57.263Z,100513.22
2022-11-29T08:30:26.927Z,100525.41
2022-11-29T08:32:56.473Z,100518.28
2022-11-29T08:35:26.524Z,100522.56
2022-11-29T08:37:58.718Z,100532.19
2022-11-29T08:40:28.296Z,100525.06
2022-11-29T08:43:00.134Z,100525.78
2022-11-29T08:45:29.821Z,100529.19
2022-11-29T08:47:59.404Z,100533.44
2022-11-29T08:50:28.949Z,100541.31
2022-11-29T08:53:13.648Z,100543.00
2022-11-29T08:55:46.560Z,100546.34
2022-11-29T08:58:18.174Z,100550.47
2022-11-29T09:00:48.627Z,100553.81
2022-11-29T09:03:30.688Z,100554.50
2022-11-29T09:06:00.386Z,100553.47
2022-11-29T09:08:32.515Z,100560.31
2022-11-29T09:11:02.119Z,100561.03
2022-11-29T09:13:31.660Z,100567.13
2022-11-29T09:16:01.284Z,100568.88
2022-11-29T09:18:31.059Z,100567.00
2022-11-29T09:21:00.855Z,100576.63
2022-11-29T09:23:33.020Z,100577.38
2022-11-29T09:26:02.612Z,100579.03
2022-11-29T09:28:33.351Z,100579.78
2022-11-29T09:31:08.015Z,100575.97
2022-11-29T09:33:37.674Z,100585.28
2022-11-29T09:36:08.446Z,100579.75
2022-11-29T09:38:41.429Z,100590.06
2022-11-29T09:41:34.274Z,100593.53
2022-11-29T09:44:08.838Z,100597.09
2022-11-29T09:46:43.863Z,100603.31
2022-11-29T09:49:33.499Z,100606.22
2022-11-29T09:52:07.571Z,100600.38
2022-11-29T09:54:40.976Z,100609.44
2022-11-29T09:57:11.234Z,100609.56
2022-11-29T09:59:44.888Z,100615.72
2022-11-29T10:02:21.720Z,100615.69
2022-11-29T10:04:55.179Z,100617.38
2022-11-29T10:07:27.628Z,100624.53
2022-11-29T10:10:04.402Z,100616.75
2022-11-29T10:12:37.799Z,100616.03
2022-11-29T10:15:13.936Z,100623.16
2022-11-29T10:17:48.054Z,100621.44
2022-11-29T10:20:18.326Z,100622.34
2022-11-29T10:22:53.595Z,100617.97
2022-11-29T10:25:29.330Z,100624.25
2022-11-29T10:27:58.994Z,100618.25
2022-11-29T10:30:28.573Z,100627.22
2022-11-29T10:33:00.188Z,100621.28
2022-11-29T10:35:30.590Z,100623.16
2022-11-29T10:40:57.563Z,100622.25
2022-11-29T10:43:27.250Z,100611.59
2022-11-29T10:45:58.923Z,100614.13
2022-11-29T10:48:31.784Z,100615.84
2022-11-29T10:51:01.706Z,100617.59
2022-11-29T10:53:35.886Z,100620.13
2022-11-29T10:56:10.396Z,100618.19
2022-11-29T10:58:57.356Z,100612.00
2022-11-29T11:01:29.147Z,100621.66
2022-11-29T11:04:03.240Z,100616.25
2022-11-29T11:06:45.993Z,100616.94
2022-11-29T11:09:21.634Z,100623.78
2022-11-29T11:11:58.786Z,100621.63
2022-11-29T11:14:30.383Z,100615.31
2022-11-29T11:17:17.485Z,100622.47
2022-11-29T11:19:57.640Z,100623.44
2022-11-29T11:22:27.956Z,100625.22
2022-11-29T11:25:03.249Z,100627.88
2022-11-29T11:27:38.574Z,100626.94
2022-11-29T11:30:10.608Z,100627.88
2022-11-29T11:32:40.210Z,100614.66
2022-11-29T11:35:24.802Z,100626.16
2022-11-29T11:37:59.666Z,100624.34
2022-11-29T11:40:31.250Z,100622.59
2022-11-29T11:43:04.990Z,100621.56
2022-11-29T11:45:38.614Z,100623.31
2022-11-29T11:48:15.039Z,100624.06
2022-11-29T11:50:47.299Z,100620.50
2022-11-29T11:53:25.358Z,100633.66
2022-11-29T11:56:01.378Z,100631.88
2022-11-29T11:58:35.648Z,100624.81
2022-11-29T12:01:19.161Z,100623.81
2022-11-29T12:03:53.668Z,100632.69
2022-11-29T12:06:39.645Z,100627.41
2022-11-29T12:09:18.743Z,100627.50
2022-11-29T12:11:54.279Z,100625.88
2022-11-29T12:14:34.104Z,100626.88
2022-11-29T12:17:14.285Z,100624.28
2022-11-29T12:19:55.572Z,100638.47
2022-11-29T12:22:28.097Z,100639.38
2022-11-29T12:25:01.058Z,100642.03
2022-11-29T12:27:30.772Z,100642.88
2022-11-29T12:30:03.175Z,100647.31
2022-11-29T12:32:49.756Z,100647.31
2022-11-29T12:35:42.966Z,100652.69
2022-11-29T12:38:23.532Z,100656.16
2022-11-29T12:40:57.683Z,100662.38
2022-11-29T12:43:27.951Z,100671.25
2022-11-29T12:46:06.899Z,100663.34
2022-11-29T12:48:40.999Z,100673.94
2022-11-29T12:51:16.867Z,100674.88
2022-11-29T12:53:55.232Z,100673.28
2022-11-29T12:56:29.593Z,100676.97
2022-11-29T12:59:07.204Z,100681.47
2022-11-29T13:01:53.845Z,100678.97
2022-11-29T13:04:26.803Z,100690.41
2022-11-29T13:07:00.294Z,100677.22
2022-11-29T13:09:49.935Z,100686.91
2022-11-29T13:12:23.413Z,100687.81
2022-11-29T13:14:58.409Z,100689.63
2022-11-29T13:17:40.369Z,100695.03
2022-11-29T13:20:30.590Z,100691.66
2022-11-29T13:23:07.221Z,100704.06
2022-11-29T13:25:39.773Z,100698.00
2022-11-29T13:28:14.364Z,100701.69
2022-11-29T13:30:44.089Z,100700.94
2022-11-29T13:33:23.273Z,100702.84
2022-11-29T13:35:59.553Z,100709.03
2022-11-29T13:38:34.443Z,100707.22
2022-11-29T13:41:10.139Z,100705.34
2022-11-29T13:43:42.484Z,100708.59
2022-11-29T13:46:19.740Z,100710.13
2022-11-29T13:48:54.281Z,100707.19
2022-11-29T13:51:26.779Z,100707.03
2022-11-29T13:53:57.116Z,100706.06
2022-11-29T13:56:32.744Z,100701.56
2022-11-29T13:59:03.619Z,100701.56
2022-11-29T14:01:46.520Z,100704.22
2022-11-29T14:04:27.498Z,100699.81
2022-11-29T14:07:08.846Z,100700.84
2022-11-29T14:09:44.925Z,100707.25
2022-11-29T14:12:28.185Z,100700.34
2022-11-29T14:15:01.479Z,100702.19
2022-11-29T14:17:37.275Z,100701.38
2022-11-29T14:20:54.517Z,100715.50
2022-11-29T14:23:41.011Z,100719.16
2022-11-29T14:26:28.522Z,100713.88
2022-11-29T14:28:58.658Z,100712.19
2022-11-29T14:31:53.387Z,100714.88
2022-11-29T14:34:36.018Z,100719.28
2022-11-29T14:37:11.682Z,100721.16
2022-11-29T14:39:49.548Z,100728.19
2022-11-29T14:42:21.161Z,100728.25
2022-11-29T14:44:53.715Z,100741.53
2022-11-29T14:47:29.946Z,100732.84
2022-11-29T14:50:00.893Z,100735.53
2022-11-29T14:52:33.006Z,100727.72
2022-11-29T14:55:08.009Z,100736.56
2022-11-29T14:58:16.220Z,100740.13
2022-11-29T15:01:02.703Z,100737.53
2022-11-29T15:03:37.546Z,100740.34
2022-11-29T15:06:17.908Z,100737.69
2022-11-29T15:08:52.889Z,100739.47
2022-11-29T15:11:34.707Z,100742.22
2022-11-29T15:14:08.317Z,100742.25
2022-11-29T15:16:57.760Z,100734.38
2022-11-29T15:19:49.166Z,100743.22
2022-11-29T15:22:20.672Z,100745.94
2022-11-29T15:24:55.287Z,100752.19
2022-11-29T15:27:27.586Z,100744.34
2022-11-29T15:29:58.939Z,100749.75
2022-11-29T15:32:31.341Z,100751.63
2022-11-29T15:35:01.532Z,100750.06
2022-11-29T15:37:44.547Z,100763.38
2022-11-29T15:40:17.198Z,100764.44
2022-11-29T15:42:51.425Z,100764.63
2022-11-29T15:45:29.869Z,100753.31
2022-11-29T15:48:15.110Z,100759.56
2022-11-29T15:50:48.661Z,100759.63
2022-11-29T15:53:22.714Z,100760.63
2022-11-29T15:55:52.254Z,100768.81
2022-11-29T15:58:24.497Z,100773.47
2022-11-29T16:00:54.960Z,100770.91
2022-11-29T16:03:29.077Z,100772.69
2022-11-29T16:06:04.108Z,100786.81
2022-11-29T16:08:37.400Z,100785.16
2022-11-29T16:11:08.605Z,100787.00
2022-11-29T16:13:43.154Z,100783.53
2022-11-29T16:16:20.496Z,100787.97
2022-11-29T16:18:54.766Z,100786.22
2022-11-29T16:21:26.090Z,100790.66
2022-11-29T16:23:56.304Z,100793.34
2022-11-29T16:26:27.140Z,100787.22
2022-11-29T16:29:00.104Z,100795.25
2022-11-29T16:31:34.958Z,100787.38
2022-11-29T16:34:10.332Z,100796.34
2022-11-29T16:36:40.091Z,100791.19
2022-11-29T16:39:10.991Z,100792.28
2022-11-29T16:41:41.615Z,100792.44
2022-11-29T16:44:45.513Z,100799.69
2022-11-29T16:47:19.102Z,100797.25
2022-11-29T16:49:49.132Z,100801.81
2022-11-29T16:52:27.093Z,100801.88
2022-11-29T16:54:56.773Z,100801.88
2022-11-29T16:57:26.640Z,100805.31
2022-11-29T16:59:58.920Z,100801.78
2022-11-29T17:02:31.725Z,100808.81
2022-11-29T17:05:01.387Z,100805.28
2022-11-29T17:07:32.728Z,100798.25
2022-11-29T17:10:02.771Z,100809.66
2022-11-29T17:12:32.641Z,100810.50
2022-11-29T17:15:04.863Z,100799.94
2022-11-29T17:17:34.497Z,100799.09
2022-11-29T17:20:04.110Z,100807.88
2022-11-29T17:22:33.683Z,100806.16
2022-11-29T17:25:03.339Z,100810.59
2022-11-29T17:27:33.172Z,100802.69
2022-11-29T17:30:06.034Z,100804.50
2022-11-29T17:32:36.605Z,100804.66
2022-11-29T17:35:06.444Z,100801.38
2022-11-29T17:37:36.025Z,100804.22
2022-11-29T17:40:05.617Z,100802.66
2022-11-29T17:42:35.276Z,100809.88
2022-11-29T17:45:07.958Z,100816.16
2022-11-29T17:47:37.551Z,100813.66
2022-11-29T17:50:08.461Z,100820.72
2022-11-29T17:52:39.227Z,100819.94
2022-11-29T17:55:10.297Z,100820.06
2022-11-29T17:57:39.957Z,100829.88
2022-11-29T18:00:15.418Z,100829.19
2022-11-29T18:02:45.059Z,100828.59
2022-11-29T18:05:14.689Z,100824.50
2022-11-29T18:07:58.055Z,100829.19
2022-11-29T18:10:28.540Z,100833.91
2022-11-29T18:12:58.156Z,100839.41
2022-11-29T18:15:30.352Z,100833.41
2022-11-29T18:17:59.897Z,100837.13
2022-11-29T18:20:29.503Z,100842.59
2022-11-29T18:23:01.427Z,100838.31
2022-11-29T18:25:39.553Z,100841.06
2022-11-29T18:28:11.340Z,100831.50
2022-11-29T18:30:43.562Z,100838.50
2022-11-29T18:33:13.156Z,100834.13
2022-11-29T18:35:42.791Z,100840.16
2022-11-29T18:38:15.720Z,100836.59
2022-11-29T18:40:48.370Z,100845.22
2022-11-29T18:43:19.478Z,100847.72
2022-11-29T18:45:51.793Z,100845.84
2022-11-29T18:48:21.384Z,100847.44
2022-11-29T18:50:51.025Z,100847.28
2022-11-29T18:53:20.625Z,100849.78
2022-11-29T18:55:50.223Z,100849.63
2022-11-29T18:58:20.069Z,100850.38
2022-11-29T19:00:52.348Z,100844.13
2022-11-29T19:03:21.994Z,100847.56
2022-11-29T19:05:55.090Z,100850.13
2022-11-29T19:08:25.563Z,100852.69
2022-11-29T19:10:55.296Z,100859.59
2022-11-29T19:13:24.956Z,100858.66
2022-11-29T19:15:58.215Z,100857.69
2022-11-29T19:18:27.878Z,100863.81
2022-11-29T19:21:06.353Z,100859.34
2022-11-29T19:23:36.031Z,100846.19
2022-11-29T19:26:06.519Z,100852.28
2022-11-29T19:28:38.279Z,100852.25
2022-11-29T19:31:11.110Z,100854.00
2022-11-29T19:33:44.863Z,100861.81
2022-11-29T19:36:15.907Z,100858.25
2022-11-29T19:38:50.244Z,100861.66
2022-11-29T19:41:24.809Z,100865.97
2022-11-29T19:43:54.558Z,100869.41
2022-11-29T19:46:28.383Z,100870.16
2022-11-29T19:48:59.517Z,100870.09
2022-11-29T19:51:30.252Z,100868.25
2022-11-29T19:54:01.590Z,100865.63
2022-11-29T19:56:32.193Z,100868.22
2022-11-29T19:59:02.743Z,100871.72
2022-11-29T20:01:40.880Z,100877.88
2022-11-29T20:04:11.780Z,100875.25
2022-11-29T20:06:41.554Z,100878.75
2022-11-29T20:09:11.300Z,100877.88
2022-11-29T20:11:41.092Z,100878.69
2022-11-29T20:14:11.542Z,100882.16
2022-11-29T20:16:44.493Z,100889.13
2022-11-29T20:19:16.228Z,100888.25
2022-11-29T20:21:47.796Z,100890.00
2022-11-29T20:24:19.388Z,100894.38
2022-11-29T20:26:50.659Z,100895.22
2022-11-29T20:29:21.868Z,100889.94
2022-11-29T20:31:54.088Z,100897.00
2022-11-29T20:34:23.940Z,100896.06
2022-11-29T20:37:10.576Z,100897.00
2022-11-29T20:39:46.568Z,100902.28
2022-11-29T20:42:48.831Z,100904.00
2022-11-29T20:45:19.598Z,100901.38
2022-11-29T20:47:56.204Z,100897.91
2022-11-29T20:50:28.679Z,100898.78
2022-11-29T20:53:09.181Z,100902.31
2022-11-29T20:55:44.891Z,100901.44
2022-11-29T20:58:16.157Z,100902.31
2022-11-29T21:00:45.942Z,100905.00
2022-11-29T21:03:19.361Z,100906.78
2022-11-29T21:05:49.451Z,100915.59
2022-11-29T21:08:21.932Z,100913.00
2022-11-29T21:10:53.266Z,100914.72
2022-11-29T21:13:24.257Z,100910.31
2022-11-29T21:15:54.907Z,100903.31
2022-11-29T21:18:29.951Z,100909.47
2022-11-29T21:21:06.425Z,100912.13
2022-11-29T21:23:45.504Z,100908.63
2022-11-29T21:26:18.719Z,100909.50
2022-11-29T21:29:00.817Z,100906.03
2022-11-29T21:31:31.113Z,100912.16
2022-11-29T21:34:03.964Z,100906.03
2022-11-29T21:36:33.859Z,100915.66
2022-11-29T21:39:05.263Z,100912.19
2022-11-29T21:41:35.283Z,100925.31
2022-11-29T21:44:07.070Z,100920.94
2022-11-29T21:46:37.601Z,100913.94
2022-11-29T21:49:10.413Z,100926.22
2022-11-29T21:51:40.021Z,100920.94
2022-11-29T21:54:09.650Z,100929.75
2022-11-29T21:56:39.232Z,100925.31
2022-11-29T21:59:08.846Z,100921.88
2022-11-29T22:01:38.674Z,100920.13
2022-11-29T22:04:11.064Z,100922.81
2022-11-29T22:06:40.963Z,100925.47
2022-11-29T22:09:10.690Z,100924.63
2022-11-29T22:11:40.274Z,100922.97
2022-11-29T22:14:18.369Z,100922.13
2022-11-29T22:16:49.971Z,100930.06
2022-11-29T22:19:23.371Z,100923.94
2022-11-29T22:21:54.179Z,100924.00
2022-11-29T22:24:26.312Z,100921.41
2022-11-29T22:26:56.255Z,100922.31
2022-11-29T22:29:26.711Z,100920.56
2022-11-29T22:31:59.293Z,100926.75
2022-11-29T22:34:31.611Z,100932.06
2022-11-29T22:37:01.183Z,100925.06
2022-11-29T22:39:30.753Z,100915.44
2022-11-29T22:42:00.313Z,100915.44
2022-11-29T22:44:30.348Z,100911.06
2022-11-29T22:47:00.029Z,100920.72
2022-11-29T22:49:33.343Z,100919.78
2022-11-29T22:52:03.052Z,100912.75
2022-11-29T22:54:32.711Z,100915.34
2022-11-29T22:57:02.333Z,100913.59
2022-11-29T22:59:31.957Z,100907.44
2022-11-29T23:02:01.549Z,100916.22
2022-11-29T23:04:33.760Z,100905.69
2022-11-29T23:07:04.507Z,100910.97
2022-11-29T23:09:34.123Z,100919.72
2022-11-29T23:12:03.757Z,100916.22
2022-11-29T23:14:33.452Z,100926.75
2022-11-29T23:17:03.044Z,100925.03
2022-11-29T23:19:35.229Z,100929.44
2022-11-29T23:22:04.841Z,100932.94
2022-11-29T23:24:34.407Z,100936.41
2022-11-29T23:27:04.941Z,100939.06
2022-11-29T23:29:34.543Z,100941.69
2022-11-29T23:32:04.152Z,100942.56
2022-11-29T23:34:36.362Z,100946.03
2022-11-29T23:37:05.953Z,100943.34
2022-11-29T23:39:35.575Z,100940.72
2022-11-29T23:42:05.373Z,100941.56
2022-11-29T23:44:35.080Z,100939.78
2022-11-29T23:47:04.692Z,100945.03
2022-11-29T23:49:39.858Z,100945.91
2022-11-29T23:52:09.482Z,100936.31
2022-11-29T23:54:39.086Z,100939.78
2022-11-29T23:57:08.658Z,100941.59
2022-11-29T23:59:38.455Z,100939.00
